sensor_id;sensor_type;location;lat;lon;timestamp;temperature;humidity
10155;DHT22;5118;48.570;7.916;2023-03-02T00:01:56;1.20;99.90
10155;DHT22;5118;48.570;7.916;2023-03-02T00:04:37;1.10;99.90
10155;DHT22;5118;48.570;7.916;2023-03-02T00:07:08;1.10;99.90
10155;DHT22;5118;48.570;7.916;2023-03-02T00:09:38;1.10;99.90
10155;DHT22;5118;48.570;7.916;2023-03-02T00:12:09;1.10;99.90
10155;DHT22;5118;48.570;7.916;2023-03-02T00:14:38;1.10;99.90
10155;DHT22;5118;48.570;7.916;2023-03-02T00:17:06;1.10;99.90
10155;DHT22;5118;48.570;7.916;2023-03-02T00:19:38;1.20;99.90
10155;DHT22;5118;48.570;7.916;2023-03-02T00:22:07;1.20;99.90
10155;DHT22;5118;48.570;7.916;2023-03-02T00:24:37;1.20;99.90
10155;DHT22;5118;48.570;7.916;2023-03-02T00:27:07;1.20;99.90
10155;DHT22;5118;48.570;7.916;2023-03-02T00:29:36;1.20;99.90
10155;DHT22;5118;48.570;7.916;2023-03-02T00:32:05;1.10;99.90
10155;DHT22;5118;48.570;7.916;2023-03-02T00:34:36;1.10;99.90
10155;DHT22;5118;48.570;7.916;2023-03-02T00:37:05;1.10;99.90
10155;DHT22;5118;48.570;7.916;2023-03-02T00:39:34;1.10;99.90
10155;DHT22;5118;48.570;7.916;2023-03-02T00:42:03;1.10;99.90
10155;DHT22;5118;48.570;7.916;2023-03-02T00:44:32;1.00;99.90
10155;DHT22;5118;48.570;7.916;2023-03-02T00:47:02;1.00;99.90
10155;DHT22;5118;48.570;7.916;2023-03-02T00:49:31;1.00;99.90
10155;DHT22;5118;48.570;7.916;2023-03-02T00:52:03;0.90;99.90
10155;DHT22;5118;48.570;7.916;2023-03-02T00:54:32;0.90;99.90
10155;DHT22;5118;48.570;7.916;2023-03-02T00:57:01;0.90;99.90
10155;DHT22;5118;48.570;7.916;2023-03-02T00:59:30;0.90;99.90
10155;DHT22;5118;48.570;7.916;2023-03-02T01:02:18;0.90;99.90
10155;DHT22;5118;48.570;7.916;2023-03-02T01:04:48;0.90;99.90
10155;DHT22;5118;48.570;7.916;2023-03-02T01:07:21;0.80;99.90
10155;DHT22;5118;48.570;7.916;2023-03-02T01:09:53;0.80;99.90
10155;DHT22;5118;48.570;7.916;2023-03-02T01:12:21;0.80;99.90
10155;DHT22;5118;48.570;7.916;2023-03-02T01:14:49;0.80;99.90
10155;DHT22;5118;48.570;7.916;2023-03-02T01:17:18;0.70;99.90
10155;DHT22;5118;48.570;7.916;2023-03-02T01:19:48;0.70;99.90
10155;DHT22;5118;48.570;7.916;2023-03-02T01:22:17;0.60;99.90
10155;DHT22;5118;48.570;7.916;2023-03-02T01:24:48;0.60;99.90
10155;DHT22;5118;48.570;7.916;2023-03-02T01:27:17;0.60;99.90
10155;DHT22;5118;48.570;7.916;2023-03-02T01:29:45;0.60;99.90
10155;DHT22;5118;48.570;7.916;2023-03-02T01:32:13;0.60;99.90
10155;DHT22;5118;48.570;7.916;2023-03-02T01:34:43;0.60;99.90
10155;DHT22;5118;48.570;7.916;2023-03-02T01:37:12;0.60;99.90
10155;DHT22;5118;48.570;7.916;2023-03-02T01:39:40;0.60;99.90
10155;DHT22;5118;48.570;7.916;2023-03-02T01:42:12;0.60;99.90
10155;DHT22;5118;48.570;7.916;2023-03-02T01:44:42;0.50;99.90
10155;DHT22;5118;48.570;7.916;2023-03-02T01:47:15;0.50;99.90
10155;DHT22;5118;48.570;7.916;2023-03-02T01:49:57;0.60;99.90
10155;DHT22;5118;48.570;7.916;2023-03-02T01:52:28;0.60;99.90
10155;DHT22;5118;48.570;7.916;2023-03-02T01:55:03;0.60;99.90
10155;DHT22;5118;48.570;7.916;2023-03-02T01:57:38;0.60;99.90
10155;DHT22;5118;48.570;7.916;2023-03-02T02:00:16;0.50;99.90
10155;DHT22;5118;48.570;7.916;2023-03-02T02:02:46;0.50;99.90
10155;DHT22;5118;48.570;7.916;2023-03-02T02:05:20;0.40;99.90
10155;DHT22;5118;48.570;7.916;2023-03-02T02:07:51;0.40;99.90
10155;DHT22;5118;48.570;7.916;2023-03-02T02:10:20;0.30;99.90
10155;DHT22;5118;48.570;7.916;2023-03-02T02:12:50;0.30;99.90
10155;DHT22;5118;48.570;7.916;2023-03-02T02:15:20;0.20;99.90
10155;DHT22;5118;48.570;7.916;2023-03-02T02:17:50;0.20;99.90
10155;DHT22;5118;48.570;7.916;2023-03-02T02:20:27;0.20;99.90
10155;DHT22;5118;48.570;7.916;2023-03-02T02:23:08;0.20;99.90
10155;DHT22;5118;48.570;7.916;2023-03-02T02:25:52;0.20;99.90
10155;DHT22;5118;48.570;7.916;2023-03-02T02:28:29;0.10;99.90
10155;DHT22;5118;48.570;7.916;2023-03-02T02:31:06;0.10;99.90
10155;DHT22;5118;48.570;7.916;2023-03-02T02:33:39;0.10;99.90
10155;DHT22;5118;48.570;7.916;2023-03-02T02:36:15;0.00;99.90
10155;DHT22;5118;48.570;7.916;2023-03-02T02:38:50;0.00;99.90
10155;DHT22;5118;48.570;7.916;2023-03-02T02:41:25;0.00;99.90
10155;DHT22;5118;48.570;7.916;2023-03-02T02:43:55;-0.10;99.90
10155;DHT22;5118;48.570;7.916;2023-03-02T02:46:24;-0.10;99.90
10155;DHT22;5118;48.570;7.916;2023-03-02T02:48:54;-0.10;99.90
10155;DHT22;5118;48.570;7.916;2023-03-02T02:51:26;-0.20;99.90
10155;DHT22;5118;48.570;7.916;2023-03-02T02:53:58;-0.20;99.90
10155;DHT22;5118;48.570;7.916;2023-03-02T02:56:36;-0.20;99.90
10155;DHT22;5118;48.570;7.916;2023-03-02T02:59:14;-0.20;99.90
10155;DHT22;5118;48.570;7.916;2023-03-02T03:01:44;-0.20;99.90
10155;DHT22;5118;48.570;7.916;2023-03-02T03:04:18;-0.30;99.90
10155;DHT22;5118;48.570;7.916;2023-03-02T03:06:52;-0.20;99.90
10155;DHT22;5118;48.570;7.916;2023-03-02T03:09:21;-0.20;99.90
10155;DHT22;5118;48.570;7.916;2023-03-02T03:11:53;-0.20;99.90
10155;DHT22;5118;48.570;7.916;2023-03-02T03:14:26;-0.20;99.90
10155;DHT22;5118;48.570;7.916;2023-03-02T03:16:56;-0.20;99.90
10155;DHT22;5118;48.570;7.916;2023-03-02T03:19:28;-0.20;99.90
10155;DHT22;5118;48.570;7.916;2023-03-02T03:22:00;-0.10;99.90
10155;DHT22;5118;48.570;7.916;2023-03-02T03:24:34;-0.10;99.90
10155;DHT22;5118;48.570;7.916;2023-03-02T03:27:05;-0.20;99.90
10155;DHT22;5118;48.570;7.916;2023-03-02T03:29:40;-0.20;99.90
10155;DHT22;5118;48.570;7.916;2023-03-02T03:32:12;-0.30;99.90
10155;DHT22;5118;48.570;7.916;2023-03-02T03:34:43;-0.30;99.90
10155;DHT22;5118;48.570;7.916;2023-03-02T03:37:19;-0.40;99.90
10155;DHT22;5118;48.570;7.916;2023-03-02T03:39:49;-0.40;99.90
10155;DHT22;5118;48.570;7.916;2023-03-02T03:42:20;-0.40;99.90
10155;DHT22;5118;48.570;7.916;2023-03-02T03:44:52;-0.40;99.90
10155;DHT22;5118;48.570;7.916;2023-03-02T03:47:21;-0.40;99.90
10155;DHT22;5118;48.570;7.916;2023-03-02T03:49:50;-0.40;99.90
10155;DHT22;5118;48.570;7.916;2023-03-02T03:52:19;-0.40;99.90
10155;DHT22;5118;48.570;7.916;2023-03-02T03:55:02;-0.40;99.90
10155;DHT22;5118;48.570;7.916;2023-03-02T03:57:33;-0.40;99.90
10155;DHT22;5118;48.570;7.916;2023-03-02T04:00:04;-0.50;99.90
10155;DHT22;5118;48.570;7.916;2023-03-02T04:02:39;-0.50;99.90
10155;DHT22;5118;48.570;7.916;2023-03-02T04:05:12;-0.50;99.90
10155;DHT22;5118;48.570;7.916;2023-03-02T04:07:41;-0.50;99.90
10155;DHT22;5118;48.570;7.916;2023-03-02T04:10:11;-0.50;99.90
10155;DHT22;5118;48.570;7.916;2023-03-02T04:12:43;-0.60;99.90
10155;DHT22;5118;48.570;7.916;2023-03-02T04:15:15;-0.50;99.90
10155;DHT22;5118;48.570;7.916;2023-03-02T04:17:47;-0.50;99.90
10155;DHT22;5118;48.570;7.916;2023-03-02T04:20:19;-0.50;99.90
10155;DHT22;5118;48.570;7.916;2023-03-02T04:22:53;-0.60;99.90
10155;DHT22;5118;48.570;7.916;2023-03-02T04:25:26;-0.60;99.90
10155;DHT22;5118;48.570;7.916;2023-03-02T04:28:04;-0.70;99.90
10155;DHT22;5118;48.570;7.916;2023-03-02T04:30:37;-0.70;99.90
10155;DHT22;5118;48.570;7.916;2023-03-02T04:33:05;-0.80;99.90
10155;DHT22;5118;48.570;7.916;2023-03-02T04:35:34;-0.80;99.90
10155;DHT22;5118;48.570;7.916;2023-03-02T04:38:03;-0.80;99.90
10155;DHT22;5118;48.570;7.916;2023-03-02T04:40:35;-0.80;99.90
10155;DHT22;5118;48.570;7.916;2023-03-02T04:43:05;-0.80;99.90
10155;DHT22;5118;48.570;7.916;2023-03-02T04:45:33;-0.80;99.90
10155;DHT22;5118;48.570;7.916;2023-03-02T04:48:02;-0.70;99.90
10155;DHT22;5118;48.570;7.916;2023-03-02T04:50:31;-0.70;99.90
10155;DHT22;5118;48.570;7.916;2023-03-02T04:53:00;-0.70;99.90
10155;DHT22;5118;48.570;7.916;2023-03-02T04:55:30;-0.70;99.90
10155;DHT22;5118;48.570;7.916;2023-03-02T04:57:58;-0.70;99.90
10155;DHT22;5118;48.570;7.916;2023-03-02T05:00:29;-0.70;99.90
10155;DHT22;5118;48.570;7.916;2023-03-02T05:03:00;-0.70;99.90
10155;DHT22;5118;48.570;7.916;2023-03-02T05:05:30;-0.70;99.90
10155;DHT22;5118;48.570;7.916;2023-03-02T05:07:58;-0.70;99.90
10155;DHT22;5118;48.570;7.916;2023-03-02T05:10:27;-0.80;99.90
10155;DHT22;5118;48.570;7.916;2023-03-02T05:12:55;-0.80;99.90
10155;DHT22;5118;48.570;7.916;2023-03-02T05:15:36;-0.90;99.90
10155;DHT22;5118;48.570;7.916;2023-03-02T05:18:07;-0.90;99.90
10155;DHT22;5118;48.570;7.916;2023-03-02T05:20:36;-0.90;99.90
10155;DHT22;5118;48.570;7.916;2023-03-02T05:23:06;-1.00;99.90
10155;DHT22;5118;48.570;7.916;2023-03-02T05:25:36;-1.00;99.90
10155;DHT22;5118;48.570;7.916;2023-03-02T05:28:05;-1.00;99.90
10155;DHT22;5118;48.570;7.916;2023-03-02T05:30:35;-1.00;99.90
10155;DHT22;5118;48.570;7.916;2023-03-02T05:33:04;-1.00;99.90
10155;DHT22;5118;48.570;7.916;2023-03-02T05:35:32;-0.90;99.90
10155;DHT22;5118;48.570;7.916;2023-03-02T05:38:00;-0.90;99.90
10155;DHT22;5118;48.570;7.916;2023-03-02T05:40:30;-0.80;99.90
10155;DHT22;5118;48.570;7.916;2023-03-02T05:43:00;-0.80;99.90
10155;DHT22;5118;48.570;7.916;2023-03-02T05:45:32;-0.80;99.90
10155;DHT22;5118;48.570;7.916;2023-03-02T05:48:05;-0.80;99.90
10155;DHT22;5118;48.570;7.916;2023-03-02T05:50:34;-0.90;99.90
10155;DHT22;5118;48.570;7.916;2023-03-02T05:53:02;-0.90;99.90
10155;DHT22;5118;48.570;7.916;2023-03-02T05:55:30;-0.90;99.90
10155;DHT22;5118;48.570;7.916;2023-03-02T05:58:03;-0.90;99.90
10155;DHT22;5118;48.570;7.916;2023-03-02T06:00:32;-0.90;99.90
10155;DHT22;5118;48.570;7.916;2023-03-02T06:03:06;-1.00;99.90
10155;DHT22;5118;48.570;7.916;2023-03-02T06:05:34;-1.00;99.90
10155;DHT22;5118;48.570;7.916;2023-03-02T06:08:08;-1.00;99.90
10155;DHT22;5118;48.570;7.916;2023-03-02T06:10:36;-1.00;99.90
10155;DHT22;5118;48.570;7.916;2023-03-02T06:13:04;-1.10;99.90
10155;DHT22;5118;48.570;7.916;2023-03-02T06:15:33;-1.10;99.90
10155;DHT22;5118;48.570;7.916;2023-03-02T06:18:01;-1.10;99.90
10155;DHT22;5118;48.570;7.916;2023-03-02T06:20:31;-1.10;99.90
10155;DHT22;5118;48.570;7.916;2023-03-02T06:22:59;-1.10;99.90
10155;DHT22;5118;48.570;7.916;2023-03-02T06:25:28;-1.10;99.90
10155;DHT22;5118;48.570;7.916;2023-03-02T06:27:56;-1.20;99.90
10155;DHT22;5118;48.570;7.916;2023-03-02T06:30:25;-1.20;99.90
10155;DHT22;5118;48.570;7.916;2023-03-02T06:32:53;-1.20;99.90
10155;DHT22;5118;48.570;7.916;2023-03-02T06:35:22;-1.10;99.90
10155;DHT22;5118;48.570;7.916;2023-03-02T06:37:52;-1.10;99.90
10155;DHT22;5118;48.570;7.916;2023-03-02T06:40:20;-1.10;99.90
10155;DHT22;5118;48.570;7.916;2023-03-02T06:42:49;-1.00;99.90
10155;DHT22;5118;48.570;7.916;2023-03-02T06:45:18;-0.90;99.90
10155;DHT22;5118;48.570;7.916;2023-03-02T06:47:48;-0.90;99.90
10155;DHT22;5118;48.570;7.916;2023-03-02T06:50:17;-1.00;99.90
10155;DHT22;5118;48.570;7.916;2023-03-02T06:52:47;-0.90;99.90
10155;DHT22;5118;48.570;7.916;2023-03-02T06:55:19;-0.90;99.90
10155;DHT22;5118;48.570;7.916;2023-03-02T06:57:48;-0.90;99.90
10155;DHT22;5118;48.570;7.916;2023-03-02T07:00:17;-0.90;99.90
10155;DHT22;5118;48.570;7.916;2023-03-02T07:02:55;-0.80;99.90
10155;DHT22;5118;48.570;7.916;2023-03-02T07:05:23;-0.70;99.90
10155;DHT22;5118;48.570;7.916;2023-03-02T07:07:52;-0.70;99.90
10155;DHT22;5118;48.570;7.916;2023-03-02T07:10:26;-0.60;99.90
10155;DHT22;5118;48.570;7.916;2023-03-02T07:12:54;-0.50;99.90
10155;DHT22;5118;48.570;7.916;2023-03-02T07:15:25;-0.40;99.90
10155;DHT22;5118;48.570;7.916;2023-03-02T07:17:54;-0.40;99.90
10155;DHT22;5118;48.570;7.916;2023-03-02T07:20:23;-0.30;99.90
10155;DHT22;5118;48.570;7.916;2023-03-02T07:22:52;-0.20;99.90
10155;DHT22;5118;48.570;7.916;2023-03-02T07:25:20;-0.10;99.90
10155;DHT22;5118;48.570;7.916;2023-03-02T07:27:50;-0.10;99.90
10155;DHT22;5118;48.570;7.916;2023-03-02T07:30:18;0.00;99.90
10155;DHT22;5118;48.570;7.916;2023-03-02T07:32:48;0.10;99.90
10155;DHT22;5118;48.570;7.916;2023-03-02T07:35:16;0.20;99.90
10155;DHT22;5118;48.570;7.916;2023-03-02T07:37:44;0.30;99.90
10155;DHT22;5118;48.570;7.916;2023-03-02T07:40:14;0.40;99.90
10155;DHT22;5118;48.570;7.916;2023-03-02T07:42:42;0.40;99.90
10155;DHT22;5118;48.570;7.916;2023-03-02T07:45:14;0.50;99.90
10155;DHT22;5118;48.570;7.916;2023-03-02T07:47:46;0.60;99.90
10155;DHT22;5118;48.570;7.916;2023-03-02T07:50:15;0.70;99.90
10155;DHT22;5118;48.570;7.916;2023-03-02T07:52:44;0.80;99.90
10155;DHT22;5118;48.570;7.916;2023-03-02T07:55:13;0.90;99.90
10155;DHT22;5118;48.570;7.916;2023-03-02T07:57:41;1.00;99.90
10155;DHT22;5118;48.570;7.916;2023-03-02T08:00:10;1.10;99.90
10155;DHT22;5118;48.570;7.916;2023-03-02T08:02:40;1.10;99.90
10155;DHT22;5118;48.570;7.916;2023-03-02T08:05:10;1.20;99.90
10155;DHT22;5118;48.570;7.916;2023-03-02T08:07:39;1.30;99.90
10155;DHT22;5118;48.570;7.916;2023-03-02T08:10:10;1.40;99.90
10155;DHT22;5118;48.570;7.916;2023-03-02T08:12:39;1.60;99.90
10155;DHT22;5118;48.570;7.916;2023-03-02T08:15:10;1.70;99.90
10155;DHT22;5118;48.570;7.916;2023-03-02T08:17:40;1.80;99.90
10155;DHT22;5118;48.570;7.916;2023-03-02T08:20:09;1.90;99.90
10155;DHT22;5118;48.570;7.916;2023-03-02T08:22:38;2.00;99.90
10155;DHT22;5118;48.570;7.916;2023-03-02T08:25:06;2.10;99.90
10155;DHT22;5118;48.570;7.916;2023-03-02T08:27:36;2.30;99.90
10155;DHT22;5118;48.570;7.916;2023-03-02T08:30:07;2.40;99.90
10155;DHT22;5118;48.570;7.916;2023-03-02T08:32:36;2.50;99.90
10155;DHT22;5118;48.570;7.916;2023-03-02T08:35:07;2.60;99.90
10155;DHT22;5118;48.570;7.916;2023-03-02T08:37:36;2.70;99.90
10155;DHT22;5118;48.570;7.916;2023-03-02T08:40:05;2.80;99.90
10155;DHT22;5118;48.570;7.916;2023-03-02T08:42:38;2.90;99.90
10155;DHT22;5118;48.570;7.916;2023-03-02T08:45:07;2.90;99.90
10155;DHT22;5118;48.570;7.916;2023-03-02T08:47:36;3.10;99.90
10155;DHT22;5118;48.570;7.916;2023-03-02T08:50:06;3.20;99.90
10155;DHT22;5118;48.570;7.916;2023-03-02T08:52:36;3.40;99.90
10155;DHT22;5118;48.570;7.916;2023-03-02T08:55:07;3.50;99.90
10155;DHT22;5118;48.570;7.916;2023-03-02T08:57:37;3.70;99.90
10155;DHT22;5118;48.570;7.916;2023-03-02T09:00:08;3.90;99.90
10155;DHT22;5118;48.570;7.916;2023-03-02T09:02:41;4.10;99.90
10155;DHT22;5118;48.570;7.916;2023-03-02T09:05:12;4.20;99.90
10155;DHT22;5118;48.570;7.916;2023-03-02T09:07:41;4.40;99.90
10155;DHT22;5118;48.570;7.916;2023-03-02T09:10:11;4.60;99.90
10155;DHT22;5118;48.570;7.916;2023-03-02T09:12:39;4.70;99.90
10155;DHT22;5118;48.570;7.916;2023-03-02T09:15:08;4.90;99.90
10155;DHT22;5118;48.570;7.916;2023-03-02T09:17:37;5.00;99.90
10155;DHT22;5118;48.570;7.916;2023-03-02T09:20:06;5.10;99.90
10155;DHT22;5118;48.570;7.916;2023-03-02T09:22:38;5.30;99.90
10155;DHT22;5118;48.570;7.916;2023-03-02T09:25:09;5.40;99.90
10155;DHT22;5118;48.570;7.916;2023-03-02T09:27:39;5.50;99.90
10155;DHT22;5118;48.570;7.916;2023-03-02T09:30:09;5.60;99.90
10155;DHT22;5118;48.570;7.916;2023-03-02T09:32:37;5.70;99.90
10155;DHT22;5118;48.570;7.916;2023-03-02T09:35:08;5.70;99.90
10155;DHT22;5118;48.570;7.916;2023-03-02T09:37:38;5.80;99.90
10155;DHT22;5118;48.570;7.916;2023-03-02T09:40:16;5.80;99.90
10155;DHT22;5118;48.570;7.916;2023-03-02T09:42:54;5.90;99.90
10155;DHT22;5118;48.570;7.916;2023-03-02T09:45:34;5.90;99.90
10155;DHT22;5118;48.570;7.916;2023-03-02T09:48:14;6.00;99.90
10155;DHT22;5118;48.570;7.916;2023-03-02T09:50:52;6.20;99.90
10155;DHT22;5118;48.570;7.916;2023-03-02T09:53:34;6.40;99.90
10155;DHT22;5118;48.570;7.916;2023-03-02T09:56:12;6.50;99.90
10155;DHT22;5118;48.570;7.916;2023-03-02T09:58:41;6.70;99.90
10155;DHT22;5118;48.570;7.916;2023-03-02T10:01:15;6.70;99.90
10155;DHT22;5118;48.570;7.916;2023-03-02T10:03:49;6.80;99.90
10155;DHT22;5118;48.570;7.916;2023-03-02T10:06:19;6.90;99.90
10155;DHT22;5118;48.570;7.916;2023-03-02T10:08:51;7.00;99.90
10155;DHT22;5118;48.570;7.916;2023-03-02T10:11:28;7.10;99.90
10155;DHT22;5118;48.570;7.916;2023-03-02T10:14:04;7.20;99.90
10155;DHT22;5118;48.570;7.916;2023-03-02T10:16:36;7.20;99.90
10155;DHT22;5118;48.570;7.916;2023-03-02T10:19:08;7.20;99.90
10155;DHT22;5118;48.570;7.916;2023-03-02T10:21:41;7.30;99.90
10155;DHT22;5118;48.570;7.916;2023-03-02T10:24:22;7.50;99.90
10155;DHT22;5118;48.570;7.916;2023-03-02T10:26:58;7.60;99.90
10155;DHT22;5118;48.570;7.916;2023-03-02T10:29:38;7.80;99.90
10155;DHT22;5118;48.570;7.916;2023-03-02T10:32:19;8.00;99.90
10155;DHT22;5118;48.570;7.916;2023-03-02T10:34:49;8.00;99.90
10155;DHT22;5118;48.570;7.916;2023-03-02T10:37:19;8.00;99.90
10155;DHT22;5118;48.570;7.916;2023-03-02T10:39:50;8.10;99.90
10155;DHT22;5118;48.570;7.916;2023-03-02T10:42:21;8.10;99.90
10155;DHT22;5118;48.570;7.916;2023-03-02T10:44:54;8.20;99.90
10155;DHT22;5118;48.570;7.916;2023-03-02T10:47:24;8.30;99.90
10155;DHT22;5118;48.570;7.916;2023-03-02T10:49:54;8.40;99.90
10155;DHT22;5118;48.570;7.916;2023-03-02T10:52:24;8.40;99.90
10155;DHT22;5118;48.570;7.916;2023-03-02T10:55:03;8.50;99.90
10155;DHT22;5118;48.570;7.916;2023-03-02T10:57:36;8.60;99.90
10155;DHT22;5118;48.570;7.916;2023-03-02T11:00:15;8.60;99.90
10155;DHT22;5118;48.570;7.916;2023-03-02T11:02:51;8.70;99.90
10155;DHT22;5118;48.570;7.916;2023-03-02T11:05:29;8.70;99.90
10155;DHT22;5118;48.570;7.916;2023-03-02T11:08:00;8.70;99.90
10155;DHT22;5118;48.570;7.916;2023-03-02T11:10:32;8.80;99.90
10155;DHT22;5118;48.570;7.916;2023-03-02T11:13:13;8.80;99.90
10155;DHT22;5118;48.570;7.916;2023-03-02T11:15:45;8.90;99.90
10155;DHT22;5118;48.570;7.916;2023-03-02T11:18:24;8.90;99.90
10155;DHT22;5118;48.570;7.916;2023-03-02T11:20:56;9.00;99.90
10155;DHT22;5118;48.570;7.916;2023-03-02T11:23:35;9.00;99.90
10155;DHT22;5118;48.570;7.916;2023-03-02T11:26:14;9.10;99.90
10155;DHT22;5118;48.570;7.916;2023-03-02T11:28:50;9.10;99.90
10155;DHT22;5118;48.570;7.916;2023-03-02T11:31:28;9.10;99.90
10155;DHT22;5118;48.570;7.916;2023-03-02T11:34:10;9.20;99.90
10155;DHT22;5118;48.570;7.916;2023-03-02T11:36:56;9.30;99.90
10155;DHT22;5118;48.570;7.916;2023-03-02T11:39:32;9.40;99.90
10155;DHT22;5118;48.570;7.916;2023-03-02T11:42:24;9.50;99.90
10155;DHT22;5118;48.570;7.916;2023-03-02T11:44:54;9.60;99.90
10155;DHT22;5118;48.570;7.916;2023-03-02T11:47:23;9.70;99.90
10155;DHT22;5118;48.570;7.916;2023-03-02T11:49:54;9.70;99.90
10155;DHT22;5118;48.570;7.916;2023-03-02T11:52:26;9.70;99.90
10155;DHT22;5118;48.570;7.916;2023-03-02T11:54:58;9.80;99.90
10155;DHT22;5118;48.570;7.916;2023-03-02T11:57:33;9.90;99.90
10155;DHT22;5118;48.570;7.916;2023-03-02T12:00:13;9.90;99.90
10155;DHT22;5118;48.570;7.916;2023-03-02T12:02:43;9.90;99.90
10155;DHT22;5118;48.570;7.916;2023-03-02T12:05:23;9.90;99.90
10155;DHT22;5118;48.570;7.916;2023-03-02T12:07:58;9.90;99.90
10155;DHT22;5118;48.570;7.916;2023-03-02T12:10:32;9.80;99.80
10155;DHT22;5118;48.570;7.916;2023-03-02T12:13:23;9.70;99.00
10155;DHT22;5118;48.570;7.916;2023-03-02T12:15:52;9.60;99.40
10155;DHT22;5118;48.570;7.916;2023-03-02T12:18:43;9.50;99.50
10155;DHT22;5118;48.570;7.916;2023-03-02T12:21:15;9.50;99.30
10155;DHT22;5118;48.570;7.916;2023-03-02T12:23:58;9.40;99.40
10155;DHT22;5118;48.570;7.916;2023-03-02T12:26:33;9.50;99.50
10155;DHT22;5118;48.570;7.916;2023-03-02T12:29:20;9.50;99.60
10155;DHT22;5118;48.570;7.916;2023-03-02T12:31:53;9.50;98.90
10155;DHT22;5118;48.570;7.916;2023-03-02T12:34:33;9.50;99.20
10155;DHT22;5118;48.570;7.916;2023-03-02T12:37:12;9.50;99.20
10155;DHT22;5118;48.570;7.916;2023-03-02T12:46:16;9.70;99.20
10155;DHT22;5118;48.570;7.916;2023-03-02T12:48:51;9.70;99.20
10155;DHT22;5118;48.570;7.916;2023-03-02T12:51:26;9.80;99.20
10155;DHT22;5118;48.570;7.916;2023-03-02T12:54:06;9.90;98.90
10155;DHT22;5118;48.570;7.916;2023-03-02T12:56:34;9.90;98.30
10155;DHT22;5118;48.570;7.916;2023-03-02T12:59:03;10.00;98.50
10155;DHT22;5118;48.570;7.916;2023-03-02T13:01:33;10.00;98.60
10155;DHT22;5118;48.570;7.916;2023-03-02T13:04:02;10.00;98.40
10155;DHT22;5118;48.570;7.916;2023-03-02T13:06:36;10.00;98.40
10155;DHT22;5118;48.570;7.916;2023-03-02T13:09:13;10.10;98.50
10155;DHT22;5118;48.570;7.916;2023-03-02T13:11:43;10.10;98.50
10155;DHT22;5118;48.570;7.916;2023-03-02T13:14:18;10.10;98.30
10155;DHT22;5118;48.570;7.916;2023-03-02T13:16:56;10.20;98.20
10155;DHT22;5118;48.570;7.916;2023-03-02T13:19:26;10.20;97.70
10155;DHT22;5118;48.570;7.916;2023-03-02T13:21:58;10.10;97.80
10155;DHT22;5118;48.570;7.916;2023-03-02T13:24:33;10.00;97.50
10155;DHT22;5118;48.570;7.916;2023-03-02T13:27:05;9.90;97.40
10155;DHT22;5118;48.570;7.916;2023-03-02T13:29:35;9.80;97.50
10155;DHT22;5118;48.570;7.916;2023-03-02T13:32:19;9.80;97.40
10155;DHT22;5118;48.570;7.916;2023-03-02T13:34:50;9.70;97.20
10155;DHT22;5118;48.570;7.916;2023-03-02T13:37:32;9.60;97.30
10155;DHT22;5118;48.570;7.916;2023-03-02T13:40:40;9.50;97.60
10155;DHT22;5118;48.570;7.916;2023-03-02T13:43:35;9.60;97.80
10155;DHT22;5118;48.570;7.916;2023-03-02T13:48:55;9.60;97.70
10155;DHT22;5118;48.570;7.916;2023-03-02T13:51:38;9.50;97.60
10155;DHT22;5118;48.570;7.916;2023-03-02T13:54:15;9.60;97.70
10155;DHT22;5118;48.570;7.916;2023-03-02T13:56:48;9.60;97.70
10155;DHT22;5118;48.570;7.916;2023-03-02T13:59:19;9.60;98.10
10155;DHT22;5118;48.570;7.916;2023-03-02T14:01:50;9.60;97.90
10155;DHT22;5118;48.570;7.916;2023-03-02T14:04:21;9.60;97.70
10155;DHT22;5118;48.570;7.916;2023-03-02T14:06:50;9.60;97.70
10155;DHT22;5118;48.570;7.916;2023-03-02T14:09:20;9.70;97.70
10155;DHT22;5118;48.570;7.916;2023-03-02T14:11:50;9.70;97.60
10155;DHT22;5118;48.570;7.916;2023-03-02T14:14:22;9.70;97.50
10155;DHT22;5118;48.570;7.916;2023-03-02T14:16:52;9.70;97.50
10155;DHT22;5118;48.570;7.916;2023-03-02T14:19:21;9.70;97.70
10155;DHT22;5118;48.570;7.916;2023-03-02T14:21:50;9.70;97.70
10155;DHT22;5118;48.570;7.916;2023-03-02T14:24:20;9.70;97.40
10155;DHT22;5118;48.570;7.916;2023-03-02T14:26:50;9.70;97.40
10155;DHT22;5118;48.570;7.916;2023-03-02T14:29:22;9.70;97.40
10155;DHT22;5118;48.570;7.916;2023-03-02T14:31:53;9.70;97.60
10155;DHT22;5118;48.570;7.916;2023-03-02T14:34:23;9.70;97.60
10155;DHT22;5118;48.570;7.916;2023-03-02T14:36:54;9.80;97.50
10155;DHT22;5118;48.570;7.916;2023-03-02T14:39:31;9.80;97.40
10155;DHT22;5118;48.570;7.916;2023-03-02T14:42:01;9.80;97.20
10155;DHT22;5118;48.570;7.916;2023-03-02T14:44:31;9.80;97.30
10155;DHT22;5118;48.570;7.916;2023-03-02T14:46:59;9.80;97.30
10155;DHT22;5118;48.570;7.916;2023-03-02T14:49:32;9.80;97.00
10155;DHT22;5118;48.570;7.916;2023-03-02T14:52:02;9.80;97.10
10155;DHT22;5118;48.570;7.916;2023-03-02T14:54:35;9.70;96.90
10155;DHT22;5118;48.570;7.916;2023-03-02T14:57:14;9.70;97.20
10155;DHT22;5118;48.570;7.916;2023-03-02T14:59:44;9.60;97.00
10155;DHT22;5118;48.570;7.916;2023-03-02T15:02:14;9.50;97.10
10155;DHT22;5118;48.570;7.916;2023-03-02T15:04:53;9.50;97.50
10155;DHT22;5118;48.570;7.916;2023-03-02T15:07:26;9.50;97.40
10155;DHT22;5118;48.570;7.916;2023-03-02T15:09:58;9.50;97.40
10155;DHT22;5118;48.570;7.916;2023-03-02T15:12:26;9.50;97.50
10155;DHT22;5118;48.570;7.916;2023-03-02T15:14:57;9.60;97.60
10155;DHT22;5118;48.570;7.916;2023-03-02T15:17:26;9.60;97.60
10155;DHT22;5118;48.570;7.916;2023-03-02T15:19:56;9.60;97.60
10155;DHT22;5118;48.570;7.916;2023-03-02T15:22:25;9.60;97.60
10155;DHT22;5118;48.570;7.916;2023-03-02T15:24:54;9.60;97.50
10155;DHT22;5118;48.570;7.916;2023-03-02T15:27:22;9.60;97.30
10155;DHT22;5118;48.570;7.916;2023-03-02T15:29:51;9.50;97.20
10155;DHT22;5118;48.570;7.916;2023-03-02T15:32:23;9.50;97.20
10155;DHT22;5118;48.570;7.916;2023-03-02T15:34:52;9.50;97.20
10155;DHT22;5118;48.570;7.916;2023-03-02T15:37:23;9.40;97.20
10155;DHT22;5118;48.570;7.916;2023-03-02T15:39:53;9.30;97.00
10155;DHT22;5118;48.570;7.916;2023-03-02T15:42:23;9.20;97.10
10155;DHT22;5118;48.570;7.916;2023-03-02T15:44:52;9.10;97.20
10155;DHT22;5118;48.570;7.916;2023-03-02T15:47:20;9.00;97.30
10155;DHT22;5118;48.570;7.916;2023-03-02T15:49:49;8.90;97.20
10155;DHT22;5118;48.570;7.916;2023-03-02T15:52:18;8.90;97.30
10155;DHT22;5118;48.570;7.916;2023-03-02T15:54:49;8.80;97.30
10155;DHT22;5118;48.570;7.916;2023-03-02T15:57:17;8.70;97.40
10155;DHT22;5118;48.570;7.916;2023-03-02T15:59:46;8.60;97.80
10155;DHT22;5118;48.570;7.916;2023-03-02T16:02:14;8.50;97.60
10155;DHT22;5118;48.570;7.916;2023-03-02T16:04:46;8.40;98.40
10155;DHT22;5118;48.570;7.916;2023-03-02T16:07:14;8.20;98.30
10155;DHT22;5118;48.570;7.916;2023-03-02T16:09:43;8.10;98.50
10155;DHT22;5118;48.570;7.916;2023-03-02T16:12:13;8.00;98.80
10155;DHT22;5118;48.570;7.916;2023-03-02T16:14:42;8.00;98.70
10155;DHT22;5118;48.570;7.916;2023-03-02T16:17:10;7.90;99.00
10155;DHT22;5118;48.570;7.916;2023-03-02T16:19:39;7.80;98.90
10155;DHT22;5118;48.570;7.916;2023-03-02T16:22:09;7.70;99.00
10155;DHT22;5118;48.570;7.916;2023-03-02T16:24:38;7.60;99.30
10155;DHT22;5118;48.570;7.916;2023-03-02T16:27:07;7.50;99.50
10155;DHT22;5118;48.570;7.916;2023-03-02T16:29:37;7.40;99.50
10155;DHT22;5118;48.570;7.916;2023-03-02T16:32:05;7.30;99.70
10155;DHT22;5118;48.570;7.916;2023-03-02T16:34:35;7.20;99.80
10155;DHT22;5118;48.570;7.916;2023-03-02T16:37:03;7.10;99.90